Terminal Aerodrome Forecast
Issued by NWS Omaha/Valley, NE

Home | Current Version | Previous Version | Text Only | Print | Product List | Glossary On
Versions: 1 2 3 4 5 6 7 8 9 10 11 12 13 14 15 16 17 18 19 20 21 22 23 24 25 26 27 28 29 30 31 32 33 34 35
000
FTUS43 KOAX 211720
TAFOMA
TAF
KOMA 211720Z 2118/2218 16010KT P6SM SCT015 OVC100
      TEMPO 2122/2124 BKN015
     FM220000 16008KT 5SM BR SCT006 OVC010
      TEMPO 2208/2212 2SM -DZ BR=

USA.gov is the U.S. government's official web portal to all federal, state and local government web resources and services.